Weather reports worldwide

Advertisment
Dunstaffnage, United Kingdom (99006): temperature & dewpoint: 09.11.2018 05:00:00 - 15.11.2018 05:00:00 (GMT)Dunstaffnage, United Kingdom (99006): temperature -20cm: 09.11.2018 05:00:00 - 15.11.2018 05:00:00 (GMT)Dunstaffnage, United Kingdom (99006): wind speed & gusts: 09.11.2018 05:00:00 - 15.11.2018 05:00:00 (GMT)Dunstaffnage, United Kingdom (99006): wind direction: 09.11.2018 05:00:00 - 15.11.2018 05:00:00 (GMT)Dunstaffnage, United Kingdom (99006): precipitation: 09.11.2018 05:00:00 - 15.11.2018 05:00:00 (GMT)
Date & Time tt [°C] td [°C] tt -20cm [°C] ff [km/h] ff [kn] fx [km/h] fx [kn] dd rr [mm]
15.11.2018 05:00:00 - - - - - - - - -
15.11.2018 04:00:00 - - - - - - - - -
15.11.2018 03:00:00 - - - - - - - - -
15.11.2018 02:00:00 13,0 11,2 - 22 12 - - S 0,0
15.11.2018 01:00:00 13,1 11,2 - 24 13 - - S 0,0
15.11.2018 00:00:00 - - - - - - - - -
14.11.2018 23:00:00 - - - - - - - - -
14.11.2018 22:00:00 - - - - - - - - -
14.11.2018 21:00:00 13,8 11,5 - 21 11 - - S 0,0
14.11.2018 20:00:00 13,8 11,4 - 24 13 52 28 S 0,0
14.11.2018 19:00:00 14,1 11,5 - 28 15 50 27 S 0,0
14.11.2018 18:00:00 13,8 11,6 - 13 7 - - S 0,0
14.11.2018 17:00:00 13,7 11,7 - 15 8 - - S 0,0
14.11.2018 16:00:00 14,1 11,8 - 21 11 - - S 0,0
14.11.2018 15:00:00 14,6 12,4 - 21 11 - - S 0,0
14.11.2018 14:00:00 14,4 12,6 - 22 12 46 25 S 0,2
14.11.2018 13:00:00 14,0 12,8 - 22 12 46 25 S 1,4
14.11.2018 12:00:00 14,1 12,7 - 26 14 46 25 S 1,2
14.11.2018 11:00:00 13,9 12,6 - 22 12 50 27 S 1,0
14.11.2018 10:00:00 13,7 12,6 - 24 13 - - S 1,8
14.11.2018 09:00:00 12,9 12,2 9,0 15 8 - - SSE 2,6
14.11.2018 08:00:00 12,1 11,5 - 8 4 - - SE 1,2
14.11.2018 07:00:00 11,7 11,0 - 11 6 - - ESE 1,6
14.11.2018 06:00:00 11,6 10,7 - 8 4 - - ESE 0,6
14.11.2018 05:00:00 11,7 10,6 - 9 5 - - SE 0,0
14.11.2018 04:00:00 11,5 10,6 - 9 5 - - S 0,2
14.11.2018 03:00:00 11,5 10,3 - 18 10 - - S 0,4
14.11.2018 02:00:00 11,3 10,2 - 18 10 - - S 0,4
14.11.2018 01:00:00 10,8 9,7 - 13 7 - - S 0,8
14.11.2018 00:00:00 11,2 9,2 - 18 10 - - S 0,0
13.11.2018 23:00:00 11,0 9,1 - 13 7 - - SSE 0,2
13.11.2018 22:00:00 10,5 9,2 - 11 6 - - SE 0,4
13.11.2018 21:00:00 10,6 8,1 - 13 7 - - SSE 0,0
13.11.2018 20:00:00 10,3 7,5 - 13 7 - - S 0,0
13.11.2018 19:00:00 10,0 7,4 - 15 8 - - SSE 0,0
13.11.2018 18:00:00 9,7 6,9 - 11 6 - - SSE 0,0
13.11.2018 17:00:00 9,5 7,3 - 11 6 - - SE 0,0
13.11.2018 16:00:00 9,5 6,8 - 16 9 - - S 0,0
13.11.2018 15:00:00 10,5 7,5 - 11 6 - - S 0,0
13.11.2018 14:00:00 10,4 7,8 - 11 6 - - S 0,0
13.11.2018 13:00:00 11,0 7,2 - 15 8 - - SW 0,0
13.11.2018 12:00:00 10,4 7,6 - 15 8 - - WSW 0,0
13.11.2018 11:00:00 11,4 8,0 - 13 7 - - W 0,0
13.11.2018 10:00:00 9,9 7,9 - 13 7 - - WSW 0,0
13.11.2018 09:00:00 9,8 7,9 8,7 29 16 - - W 0,0
13.11.2018 08:00:00 10,0 8,9 - 21 11 - - W 0,4
13.11.2018 07:00:00 9,4 8,6 - 11 6 - - WSW 0,8
13.11.2018 06:00:00 9,1 8,3 - 9 5 - - SW 0,0
13.11.2018 05:00:00 8,6 7,8 - 8 4 - - WSW 0,0
13.11.2018 04:00:00 8,6 7,6 - 2 1 - - W 0,2
13.11.2018 03:00:00 9,1 8,1 - 9 5 - - S 0,0
13.11.2018 02:00:00 9,0 7,8 - 9 5 - - SE 0,0
13.11.2018 01:00:00 9,1 8,0 - 13 7 - - SSE 0,0
13.11.2018 00:00:00 8,7 7,9 - 9 5 - - ESE 1,2
12.11.2018 23:00:00 8,7 7,8 - 9 5 - - SE 1,4
12.11.2018 22:00:00 8,4 7,5 - 5 3 - - S 1,0
12.11.2018 21:00:00 8,7 7,2 - 15 8 - - SE 1,2
12.11.2018 20:00:00 9,1 7,1 - 15 8 - - SSE 0,6
12.11.2018 19:00:00 10,1 6,5 - 9 5 - - S 0,0
12.11.2018 18:00:00 10,0 6,7 - 8 4 - - SSE 0,0
12.11.2018 17:00:00 9,9 6,8 - 8 4 - - S 0,0
12.11.2018 16:00:00 10,6 7,3 - 8 4 - - S 0,0
12.11.2018 15:00:00 11,0 7,5 - 9 5 - - S 0,0
12.11.2018 14:00:00 11,1 7,3 - 9 5 - - S 0,0
12.11.2018 13:00:00 11,2 7,4 - 15 8 - - S 0,0
12.11.2018 12:00:00 11,2 7,4 - 16 9 - - S 0,0
12.11.2018 11:00:00 11,1 7,6 - 15 8 - - S 0,0
12.11.2018 10:00:00 10,6 7,3 - 11 6 - - S 0,0
12.11.2018 09:00:00 10,1 7,1 8,2 9 5 - - S 0,0
12.11.2018 08:00:00 10,0 6,9 - 13 7 - - S 0,0
12.11.2018 07:00:00 10,1 7,1 - 15 8 - - SSE 0,0
12.11.2018 06:00:00 9,8 7,0 - 15 8 - - SSE 0,0
12.11.2018 05:00:00 9,5 7,4 - 13 7 - - S 0,4
12.11.2018 04:00:00 9,3 7,5 - 13 7 - - S 0,4
12.11.2018 03:00:00 9,8 7,2 - 15 8 - - S 0,0
12.11.2018 02:00:00 9,6 7,3 - 13 7 - - S 0,0
12.11.2018 01:00:00 9,5 7,2 - 9 5 - - SE 0,0
12.11.2018 00:00:00 8,4 6,9 - 13 7 - - E 0,0
11.11.2018 23:00:00 7,6 6,5 - 15 8 - - E 0,0
11.11.2018 22:00:00 8,1 6,2 - 11 6 - - ESE 0,0
11.11.2018 21:00:00 7,6 6,0 - 13 7 - - ESE 0,2
11.11.2018 20:00:00 7,5 5,8 - 21 11 - - ESE 0,2
11.11.2018 19:00:00 7,2 5,8 - 15 8 - - E 0,0
11.11.2018 18:00:00 7,1 5,4 - 11 6 - - ESE 0,0
11.11.2018 17:00:00 7,6 5,8 - 9 5 - - SE 0,0
11.11.2018 16:00:00 7,6 6,1 - 9 5 - - ESE 0,0
11.11.2018 15:00:00 8,1 7,0 - 11 6 - - ESE 0,2
11.11.2018 14:00:00 7,4 6,2 - 11 6 - - SE 1,8
11.11.2018 13:00:00 7,6 6,6 - 8 4 - - SW 1,0
11.11.2018 12:00:00 7,6 6,5 - 13 7 - - ESE 2,2
11.11.2018 11:00:00 8,8 6,1 - 15 8 - - ESE 0,0
11.11.2018 10:00:00 8,4 5,6 - 13 7 - - E 0,0
11.11.2018 09:00:00 8,2 5,7 8,4 21 11 - - ESE 0,0
11.11.2018 08:00:00 7,8 5,1 - 13 7 - - ESE 0,0
11.11.2018 07:00:00 8,0 4,7 - 13 7 - - ESE 0,0
11.11.2018 06:00:00 7,7 4,6 - 16 9 - - ESE 0,0
11.11.2018 05:00:00 7,4 4,4 - 18 10 - - ESE 0,0
11.11.2018 04:00:00 6,7 4,0 - 13 7 - - SE 0,0
11.11.2018 03:00:00 7,1 4,3 - 13 7 - - ESE 0,0
11.11.2018 02:00:00 7,4 5,0 - 11 6 - - SE 0,0
11.11.2018 01:00:00 7,4 4,9 - 15 8 - - ESE 0,0
11.11.2018 00:00:00 7,4 5,2 - 15 8 - - E 0,0
10.11.2018 23:00:00 7,4 5,2 - 15 8 - - ESE 0,0
10.11.2018 22:00:00 7,5 6,0 - 15 8 - - ESE 0,0
10.11.2018 21:00:00 7,5 6,4 - 16 9 - - ESE 0,4
10.11.2018 20:00:00 7,9 6,4 - 11 6 - - ESE 0,6
10.11.2018 19:00:00 8,4 5,5 - 8 4 - - ESE 0,0
10.11.2018 18:00:00 8,2 5,9 - 9 5 - - SE 0,0
10.11.2018 17:00:00 7,7 6,1 - 5 3 - - SE 0,0
10.11.2018 16:00:00 8,9 5,7 - 8 4 - - S 0,0
10.11.2018 15:00:00 9,7 5,3 - 8 4 - - S 0,0
10.11.2018 14:00:00 10,2 5,1 - 9 5 - - S 0,0
10.11.2018 13:00:00 9,9 5,5 - 9 5 - - SSE 0,0
10.11.2018 12:00:00 10,3 5,9 - 13 7 - - S 0,0
10.11.2018 11:00:00 9,1 6,1 - 13 7 - - SSE 0,0
10.11.2018 10:00:00 8,9 6,3 - 9 5 - - SSE 0,0
10.11.2018 09:00:00 8,2 6,1 8,7 13 7 - - SSE 0,0
10.11.2018 08:00:00 8,0 6,5 - 11 6 - - SSE 0,0
10.11.2018 07:00:00 8,6 6,9 - 13 7 - - SSE 0,0
10.11.2018 06:00:00 8,8 7,0 - 13 7 - - S 0,0
10.11.2018 05:00:00 8,8 7,5 - 11 6 - - S 2,2
10.11.2018 04:00:00 9,2 6,9 - 15 8 - - S 0,0
10.11.2018 03:00:00 9,7 6,6 - 13 7 - - SSE 0,0
10.11.2018 02:00:00 9,9 7,4 - 16 9 - - SSE 0,0
10.11.2018 01:00:00 9,0 7,6 - 9 5 - - SE 0,2
10.11.2018 00:00:00 9,3 8,1 - 11 6 - - ESE 0,4
09.11.2018 23:00:00 9,4 8,0 - 16 9 50 27 ESE 0,6
09.11.2018 22:00:00 9,1 7,7 - 31 17 55 30 E 2,2
09.11.2018 21:00:00 8,7 7,5 - 31 17 57 31 E 4,0
09.11.2018 20:00:00 9,0 7,2 - 34 18 67 36 ESE 2,2
09.11.2018 19:00:00 9,7 6,9 - 34 18 67 36 ESE 1,0
09.11.2018 18:00:00 11,2 7,2 - 34 18 59 32 ESE 0,0
09.11.2018 17:00:00 10,9 7,2 - 26 14 55 30 ESE 0,0
09.11.2018 16:00:00 10,7 7,5 - 31 17 54 29 ESE 0,2
09.11.2018 15:00:00 10,7 7,5 - 31 17 55 30 ESE 0,0
09.11.2018 14:00:00 10,5 7,2 - 29 16 65 35 ESE 0,0
09.11.2018 13:00:00 10,7 7,2 - 35 19 61 33 ESE 0,0
09.11.2018 12:00:00 10,2 7,3 - 29 16 63 34 ESE 0,2
09.11.2018 11:00:00 9,8 7,5 - 34 18 55 30 ESE 0,0
09.11.2018 10:00:00 9,6 7,8 - 21 11 - - ESE 0,4
09.11.2018 09:00:00 9,5 8,1 8,7 18 10 - - ESE 0,6
09.11.2018 08:00:00 9,6 8,0 - 16 9 - - ESE 0,8
09.11.2018 07:00:00 8,7 7,2 - 18 10 - - ESE 1,2
09.11.2018 06:00:00 9,6 6,6 - 9 5 - - ESE 0,0
09.11.2018 05:00:00 9,4 7,0 - 9 5 - - SE 0,0

tt = temperature
td = dewpoint
tt -20cm = temperature -20cm
ff = wind speed
fx = gusts
dd = wind direction
rr = precipitation

Next stations